createdAt,value
2022-12-27T14:36:49.368Z,7.10
2022-12-27T14:39:40.215Z,7.00
2022-12-27T14:42:40.382Z,6.90
2022-12-27T14:45:34.807Z,6.80
2022-12-27T14:48:27.048Z,6.70
2022-12-27T14:51:50.364Z,6.60
2022-12-27T14:54:34.395Z,6.50
2022-12-27T14:57:22.518Z,6.40
2022-12-27T15:00:01.200Z,6.30
2022-12-27T15:02:37.115Z,6.30
2022-12-27T15:05:25.326Z,6.20
2022-12-27T15:08:12.510Z,6.10
2022-12-27T15:11:16.500Z,6.10
2022-12-27T15:14:15.134Z,6.00
2022-12-27T15:16:53.118Z,5.90
2022-12-27T15:19:48.719Z,5.70
2022-12-27T15:22:30.301Z,5.60
2022-12-27T15:25:26.649Z,5.60
2022-12-27T15:28:09.242Z,5.50
2022-12-27T15:30:50.883Z,5.30
2022-12-27T15:33:36.242Z,5.20
2022-12-27T15:36:15.108Z,5.10
2022-12-27T15:38:53.953Z,5.10
2022-12-27T15:41:39.834Z,4.90
2022-12-27T15:44:34.987Z,4.90
2022-12-27T15:47:01.483Z,4.80
2022-12-27T15:49:58.313Z,4.80
2022-12-27T15:52:49.892Z,4.70
2022-12-27T15:55:58.307Z,4.60
2022-12-27T15:58:26.119Z,4.50
2022-12-27T16:01:28.817Z,4.40
2022-12-27T16:03:56.171Z,4.40
2022-12-27T16:06:35.073Z,4.40
2022-12-27T16:09:31.521Z,4.30
2022-12-27T16:12:07.264Z,4.10
2022-12-27T16:14:36.941Z,4.10
2022-12-27T16:17:12.226Z,4.10
2022-12-27T16:20:09.924Z,4.00
2022-12-27T16:22:39.938Z,4.00
2022-12-27T16:25:36.439Z,3.90
2022-12-27T16:28:08.339Z,3.90
2022-12-27T16:30:49.893Z,3.80
2022-12-27T16:33:31.991Z,3.80
2022-12-27T16:36:13.622Z,3.70
2022-12-27T16:39:04.983Z,3.60
2022-12-27T16:41:50.017Z,3.60
2022-12-27T16:44:25.946Z,3.60
2022-12-27T16:47:23.111Z,3.50
2022-12-27T16:50:04.702Z,3.50
2022-12-27T16:53:05.589Z,3.50
2022-12-27T16:56:09.260Z,3.50
2022-12-27T16:58:37.981Z,3.40
2022-12-27T17:01:29.277Z,3.30
2022-12-27T17:03:57.689Z,3.20
2022-12-27T17:06:34.967Z,3.20
2022-12-27T17:09:11.096Z,3.20
2022-12-27T17:11:52.608Z,3.20
2022-12-27T17:14:23.245Z,3.20
2022-12-27T17:17:20.767Z,3.20
2022-12-27T17:20:04.773Z,3.20
2022-12-27T17:22:35.072Z,3.20
2022-12-27T17:25:03.446Z,3.20
2022-12-27T17:28:00.962Z,3.30
2022-12-27T17:30:30.511Z,3.30
2022-12-27T17:33:28.917Z,3.30
2022-12-27T17:36:07.716Z,3.30
2022-12-27T17:39:10.415Z,3.20
2022-12-27T17:41:51.003Z,3.20
2022-12-27T17:44:47.013Z,3.20
2022-12-27T17:47:36.577Z,3.20
2022-12-27T17:50:06.593Z,3.10
2022-12-27T17:52:33.266Z,3.10
2022-12-27T17:55:16.464Z,3.10
2022-12-27T17:57:54.012Z,3.10
2022-12-27T18:00:30.151Z,3.10
2022-12-27T18:02:59.680Z,3.00
2022-12-27T18:05:32.509Z,3.00
2022-12-27T18:08:08.588Z,3.00
2022-12-27T18:10:36.415Z,2.90
2022-12-27T18:13:08.562Z,2.90
2022-12-27T18:15:44.865Z,2.90
2022-12-27T18:18:20.702Z,2.90
2022-12-27T18:20:55.728Z,2.90
2022-12-27T18:23:22.331Z,2.90
2022-12-27T18:25:52.455Z,2.90
2022-12-27T18:28:32.643Z,2.90
2022-12-27T18:31:25.572Z,2.90
2022-12-27T18:33:58.414Z,2.90
2022-12-27T18:36:27.465Z,2.90
2022-12-27T18:39:28.225Z,2.80
2022-12-27T18:41:55.580Z,2.80
2022-12-27T18:44:27.581Z,2.90
2022-12-27T18:47:00.000Z,2.80
2022-12-27T18:49:27.728Z,2.80
2022-12-27T18:51:55.224Z,2.80
2022-12-27T18:54:35.418Z,2.80
2022-12-27T18:57:05.600Z,2.80
2022-12-27T18:59:36.405Z,2.80
2022-12-27T19:02:36.693Z,2.80
2022-12-27T19:05:14.651Z,2.70
2022-12-27T19:07:41.894Z,2.70
2022-12-27T19:10:24.544Z,2.80
2022-12-27T19:12:51.740Z,2.80
2022-12-27T19:15:28.584Z,2.70
2022-12-27T19:18:01.352Z,2.70
2022-12-27T19:20:31.449Z,2.70
2022-12-27T19:23:23.215Z,2.70
2022-12-27T19:26:18.522Z,2.70
2022-12-27T19:28:54.634Z,2.60
2022-12-27T19:31:22.213Z,2.60
2022-12-27T19:33:55.737Z,2.60
2022-12-27T19:36:31.360Z,2.50
2022-12-27T19:38:58.920Z,2.50
2022-12-27T19:41:26.337Z,2.50
2022-12-27T19:43:54.141Z,2.50
2022-12-27T19:46:21.633Z,2.40
2022-12-27T19:49:15.869Z,2.40
2022-12-27T19:51:37.369Z,2.40
2022-12-27T19:54:24.409Z,2.40
2022-12-27T19:56:51.452Z,2.40
2022-12-27T19:59:20.627Z,2.30
2022-12-27T20:01:48.124Z,2.30
2022-12-27T20:04:15.947Z,2.30
2022-12-27T20:06:47.208Z,2.30
2022-12-27T20:09:17.689Z,2.30
2022-12-27T20:11:44.843Z,2.30
2022-12-27T20:14:11.936Z,2.30
2022-12-27T20:16:38.755Z,2.20
2022-12-27T20:19:05.403Z,2.20
2022-12-27T20:21:31.992Z,2.20
2022-12-27T20:23:58.559Z,2.10
2022-12-27T20:26:25.433Z,2.10
2022-12-27T20:28:53.011Z,2.20
2022-12-27T20:31:20.648Z,2.10
2022-12-27T20:33:54.647Z,2.10
2022-12-27T20:36:22.745Z,2.10
2022-12-27T20:38:49.446Z,2.10
2022-12-27T20:41:18.076Z,2.10
2022-12-27T20:43:45.107Z,2.00
2022-12-27T20:46:17.336Z,2.00
2022-12-27T20:48:46.071Z,1.90
2022-12-27T20:51:19.716Z,1.80
2022-12-27T20:53:47.255Z,1.80
2022-12-27T20:56:14.100Z,1.80
2022-12-27T20:58:40.643Z,1.70
2022-12-27T21:01:15.800Z,1.70
2022-12-27T21:03:43.487Z,1.70
2022-12-27T21:06:12.958Z,1.70
2022-12-27T21:08:46.474Z,1.70
2022-12-27T21:11:18.378Z,1.70
2022-12-27T21:13:45.535Z,1.70
2022-12-27T21:16:18.384Z,1.60
2022-12-27T21:18:46.538Z,1.60
2022-12-27T21:21:19.440Z,1.50
2022-12-27T21:23:46.959Z,1.50
2022-12-27T21:26:19.853Z,1.50
2022-12-27T21:28:47.055Z,1.40
2022-12-27T21:31:15.182Z,1.40
2022-12-27T21:33:42.338Z,1.40
2022-12-27T21:36:15.688Z,1.40
2022-12-27T21:38:42.515Z,1.40
2022-12-27T21:41:23.823Z,1.40
2022-12-27T21:43:51.190Z,1.40
2022-12-27T21:46:23.470Z,1.30
2022-12-27T21:48:55.199Z,1.30
2022-12-27T21:51:21.791Z,1.30
2022-12-27T21:53:48.387Z,1.30
2022-12-27T21:56:16.836Z,1.20
2022-12-27T21:58:44.485Z,1.30
2022-12-27T22:01:15.983Z,1.20
2022-12-27T22:03:44.901Z,1.30
2022-12-27T22:06:15.861Z,1.30
2022-12-27T22:08:43.613Z,1.20
2022-12-27T22:11:10.945Z,1.20
2022-12-27T22:13:38.134Z,1.20
2022-12-27T22:16:07.747Z,1.20
2022-12-27T22:18:36.311Z,1.20
2022-12-27T22:21:05.483Z,1.20
2022-12-27T22:23:33.890Z,1.20
2022-12-27T22:26:00.442Z,1.10
2022-12-27T22:28:27.028Z,1.10
2022-12-27T22:30:53.958Z,1.10
2022-12-27T22:33:20.559Z,1.10
2022-12-27T22:35:47.177Z,1.10
2022-12-27T22:38:13.831Z,1.10
2022-12-27T22:40:45.840Z,1.10
2022-12-27T22:43:12.987Z,1.10
2022-12-27T22:45:42.465Z,1.10
2022-12-27T22:48:09.094Z,1.10
2022-12-27T22:50:37.407Z,1.10
2022-12-27T22:53:03.968Z,1.10
2022-12-27T22:55:30.518Z,1.10
2022-12-27T22:57:57.069Z,1.00
2022-12-27T23:00:23.640Z,1.00
2022-12-27T23:02:50.264Z,1.00
2022-12-27T23:05:16.902Z,1.00
2022-12-27T23:08:05.048Z,1.00
2022-12-27T23:10:30.173Z,1.00
2022-12-27T23:12:56.911Z,1.00
2022-12-27T23:15:23.479Z,0.90
2022-12-27T23:17:50.087Z,0.90
2022-12-27T23:20:16.715Z,0.90
2022-12-27T23:22:43.275Z,0.80
2022-12-27T23:25:09.840Z,0.80
2022-12-27T23:27:36.903Z,0.80
2022-12-27T23:30:03.943Z,0.80
2022-12-27T23:32:30.529Z,0.80
2022-12-27T23:34:57.102Z,0.80
2022-12-27T23:37:23.658Z,0.70
2022-12-27T23:39:50.220Z,0.70
2022-12-27T23:42:16.851Z,0.70
2022-12-27T23:44:43.417Z,0.70
2022-12-27T23:47:09.975Z,0.70
2022-12-27T23:49:36.536Z,0.60
2022-12-27T23:52:03.427Z,0.60
2022-12-27T23:54:30.061Z,0.60
2022-12-27T23:56:56.647Z,0.60
2022-12-27T23:59:23.232Z,0.60
